Time;durP1;ratioP1;P1;durP2;ratioP2;P2;SDS_P1;SDS_P2;PMS_P1;PMS_P2;Temp;Humidity;BMP_temperature;BMP_pressure;BME280_temperature;BME280_humidity;BME280_pressure;Samples;Min_cycle;Max_cycle;Signal;HPM_P1;HPM_P2
2023/04/18 00:01:05;;;;;;;15.88;11.68;;;7.50;99.90;;;;;;5028788;28;20080;-58
2023/04/18 00:03:30;;;;;;;14.95;10.32;;;6.80;99.90;;;;;;5027980;28;20033;-58
2023/04/18 00:05:56;;;;;;;16.70;10.40;;;7.20;99.90;;;;;;5029283;28;20380;-59
2023/04/18 00:08:22;;;;;;;14.38;9.57;;;7.50;99.90;;;;;;5027527;28;20471;-58
2023/04/18 00:10:48;;;;;;;16.00;10.70;;;7.10;99.90;;;;;;5029674;28;20092;-59
2023/04/18 00:13:17;;;;;;;15.40;9.50;;;7.40;99.90;;;;;;5029048;28;20068;-56
2023/04/18 00:15:43;;;;;;;16.60;10.23;;;7.70;99.90;;;;;;5028118;28;20038;-59
2023/04/18 00:18:09;;;;;;;18.02;11.18;;;7.00;99.90;;;;;;5027732;28;20060;-58
2023/04/18 00:20:37;;;;;;;16.50;10.77;;;7.00;99.90;;;;;;5029499;28;20037;-59
2023/04/18 00:23:05;;;;;;;17.55;10.65;;;6.90;99.90;;;;;;5023563;28;20050;-58
2023/04/18 00:25:31;;;;;;;17.60;11.30;;;;;;;;;;5019582;28;20122;-56
2023/04/18 00:27:57;;;;;;;16.33;10.75;;;7.10;99.90;;;;;;5029442;28;20048;-58
2023/04/18 00:30:22;;;;;;;17.60;10.65;;;7.30;99.90;;;;;;5028850;28;20509;-57
2023/04/18 00:32:48;;;;;;;16.38;11.43;;;7.00;99.90;;;;;;5027928;28;20139;-58
2023/04/18 00:35:14;;;;;;;15.93;10.43;;;7.20;99.90;;;;;;5028574;28;20042;-58
2023/04/18 00:37:40;;;;;;;17.95;10.35;;;7.40;99.90;;;;;;5028102;28;20097;-58
2023/04/18 00:40:06;;;;;;;17.08;11.90;;;7.30;99.90;;;;;;5029201;28;20045;-57
2023/04/18 00:42:32;;;;;;;16.17;10.70;;;7.30;99.90;;;;;;5028571;28;20047;-57
2023/04/18 00:44:58;;;;;;;14.43;9.77;;;7.40;99.90;;;;;;5028768;28;20045;-58
2023/04/18 00:47:26;;;;;;;16.85;10.43;;;;;;;;;;5035897;28;20111;-57
2023/04/18 00:49:51;;;;;;;16.38;9.85;;;7.40;99.90;;;;;;5029324;28;20048;-58
2023/04/18 00:52:18;;;;;;;13.43;8.57;;;7.40;99.90;;;;;;5032872;28;20113;-59
2023/04/18 00:54:44;;;;;;;13.02;8.32;;;7.50;99.90;;;;;;5024188;28;20121;-59
2023/04/18 00:57:10;;;;;;;12.32;7.82;;;7.80;99.90;;;;;;5025865;28;20079;-59
2023/04/18 00:59:37;;;;;;;10.80;7.38;;;7.50;99.90;;;;;;5023119;28;20434;-57
2023/04/18 01:02:03;;;;;;;11.48;7.40;;;7.20;99.90;;;;;;5027705;28;20041;-59
2023/04/18 01:04:30;;;;;;;12.15;7.63;;;7.50;99.90;;;;;;5028442;28;20052;-58
2023/04/18 01:06:56;;;;;;;10.85;6.57;;;7.60;99.90;;;;;;5025662;28;20124;-57
2023/04/18 01:09:23;;;;;;;11.55;7.28;;;7.20;99.90;;;;;;5018443;28;20128;-59
2023/04/18 01:11:49;;;;;;;11.80;7.00;;;7.30;99.90;;;;;;5028802;28;20038;-58
2023/04/18 01:14:15;;;;;;;14.98;7.28;;;7.40;99.90;;;;;;5027800;28;20056;-58
2023/04/18 01:16:41;;;;;;;20.50;8.07;;;7.60;99.90;;;;;;5028825;28;20398;-59
2023/04/18 01:19:07;;;;;;;11.15;7.10;;;7.40;99.90;;;;;;5021041;28;20045;-58
2023/04/18 01:21:34;;;;;;;12.30;8.23;;;8.00;99.90;;;;;;5025579;28;20038;-56
2023/04/18 01:24:08;;;;;;;12.25;7.85;;;;;;;;;;5026169;28;20052;-58
2023/04/18 01:26:33;;;;;;;12.55;7.95;;;7.50;99.90;;;;;;5020523;28;20332;-57
2023/04/18 01:28:59;;;;;;;14.15;8.52;;;8.10;99.90;;;;;;5027950;28;20033;-56
2023/04/18 01:31:25;;;;;;;12.85;8.00;;;7.50;99.90;;;;;;5024099;28;20113;-57
2023/04/18 01:33:50;;;;;;;13.07;7.57;;;7.40;99.90;;;;;;5024819;28;20033;-59
2023/04/18 01:36:16;;;;;;;15.05;8.27;;;7.90;99.90;;;;;;5025300;28;20034;-58
2023/04/18 01:38:42;;;;;;;16.17;8.57;;;7.40;99.90;;;;;;5023823;28;20064;-58
2023/04/18 01:41:07;;;;;;;13.82;9.10;;;7.40;99.90;;;;;;5024480;28;20488;-59
2023/04/18 01:43:33;;;;;;;13.82;9.50;;;7.00;99.90;;;;;;5027920;28;20060;-56
2023/04/18 01:45:58;;;;;;;15.23;9.15;;;7.20;99.90;;;;;;5027107;28;20095;-55
2023/04/18 01:48:24;;;;;;;15.75;9.02;;;7.30;99.90;;;;;;5023681;28;20057;-58
2023/04/18 01:50:50;;;;;;;14.93;8.88;;;7.10;99.90;;;;;;5024441;28;20105;-59
2023/04/18 01:53:16;;;;;;;13.98;8.23;;;7.30;99.90;;;;;;5020430;28;20064;-58
2023/04/18 01:55:42;;;;;;;12.07;7.90;;;8.10;99.90;;;;;;5022195;28;20041;-57
2023/04/18 01:58:08;;;;;;;12.00;7.95;;;7.30;99.90;;;;;;5022450;28;20038;-57
2023/04/18 02:00:33;;;;;;;13.18;8.50;;;7.30;99.90;;;;;;5032471;28;20049;-59
2023/04/18 02:02:59;;;;;;;13.18;7.57;;;7.30;99.90;;;;;;5027072;28;20041;-59
2023/04/18 02:05:27;;;;;;;17.08;8.95;;;7.40;99.90;;;;;;5027666;28;20072;-56
2023/04/18 02:07:53;;;;;;;11.15;7.53;;;7.50;99.90;;;;;;5031262;28;20139;-58
2023/04/18 02:10:19;;;;;;;11.80;7.03;;;7.50;99.90;;;;;;5029521;28;20124;-57
2023/04/18 02:12:45;;;;;;;12.77;7.28;;;7.10;99.90;;;;;;5024886;28;20037;-59
2023/04/18 02:15:11;;;;;;;11.48;7.28;;;7.10;99.90;;;;;;5031390;28;20087;-58
2023/04/18 02:17:37;;;;;;;12.23;7.40;;;7.30;99.90;;;;;;5028585;28;20087;-57
2023/04/18 02:20:03;;;;;;;10.98;6.75;;;7.50;99.90;;;;;;5024263;28;20132;-58
2023/04/18 02:22:29;;;;;;;12.75;7.60;;;7.20;99.90;;;;;;5031449;28;20533;-58
2023/04/18 02:24:54;;;;;;;11.02;6.68;;;7.30;99.90;;;;;;5026614;28;20277;-58
2023/04/18 02:27:20;;;;;;;13.15;6.28;;;7.40;99.90;;;;;;5029414;28;20120;-57
2023/04/18 02:29:46;;;;;;;12.27;6.55;;;7.20;99.90;;;;;;5031903;28;20071;-58
2023/04/18 02:32:11;;;;;;;10.10;7.07;;;7.80;99.90;;;;;;5031451;28;20041;-59
2023/04/18 02:34:38;;;;;;;11.85;6.88;;;;;;;;;;5031070;28;20033;-58
2023/04/18 02:37:04;;;;;;;10.60;6.75;;;7.30;99.90;;;;;;5025261;28;20104;-58
2023/04/18 02:39:30;;;;;;;9.02;5.45;;;7.30;99.90;;;;;;5030019;28;20289;-57
2023/04/18 02:41:56;;;;;;;12.70;6.00;;;;;;;;;;5031355;28;20583;-58
2023/04/18 02:44:21;;;;;;;10.48;6.10;;;6.90;99.90;;;;;;5025734;28;20069;-58
2023/04/18 02:46:47;;;;;;;9.88;5.95;;;7.20;99.90;;;;;;5023186;28;20045;-57
2023/04/18 02:49:13;;;;;;;9.20;5.43;;;7.30;99.90;;;;;;5026784;28;20444;-56
2023/04/18 02:51:38;;;;;;;8.57;5.28;;;7.30;99.90;;;;;;5024379;28;20456;-57
2023/04/18 02:54:04;;;;;;;9.07;5.35;;;7.30;99.90;;;;;;5026523;28;20094;-59
2023/04/18 02:56:30;;;;;;;8.52;4.97;;;7.40;99.90;;;;;;5029117;28;20041;-57
2023/04/18 02:58:55;;;;;;;8.85;5.88;;;7.30;99.90;;;;;;5031471;28;20395;-58
2023/04/18 03:01:21;;;;;;;9.70;5.30;;;7.30;99.90;;;;;;5030947;28;20414;-58
2023/04/18 03:03:47;;;;;;;8.77;4.75;;;7.20;99.90;;;;;;5028903;28;20089;-58
2023/04/18 03:06:13;;;;;;;9.98;5.07;;;;;;;;;;5031347;28;20426;-54
2023/04/18 03:08:39;;;;;;;8.50;5.20;;;7.00;99.90;;;;;;5029483;28;20125;-58
2023/04/18 03:11:05;;;;;;;7.85;4.95;;;7.30;99.90;;;;;;5027194;28;20049;-57
2023/04/18 03:13:31;;;;;;;8.35;5.15;;;7.50;99.90;;;;;;5026144;28;20033;-57
2023/04/18 03:15:57;;;;;;;9.48;4.97;;;;;;;;;;5003385;28;20100;-59
2023/04/18 03:18:23;;;;;;;8.68;4.88;;;6.60;99.90;;;;;;5044749;28;20049;-59
2023/04/18 03:20:49;;;;;;;10.18;5.18;;;7.30;99.90;;;;;;5019577;28;20368;-57
2023/04/18 03:23:15;;;;;;;8.88;4.40;;;7.10;99.90;;;;;;5024930;28;20120;-57
2023/04/18 03:25:40;;;;;;;9.27;5.10;;;7.10;99.90;;;;;;5025278;28;20041;-56
2023/04/18 03:28:06;;;;;;;8.07;4.82;;;;;;;;;;5025643;28;20124;-57
2023/04/18 03:30:32;;;;;;;9.02;5.22;;;7.10;99.90;;;;;;5016980;28;20099;-57
2023/04/18 03:32:58;;;;;;;11.35;5.80;;;7.00;99.90;;;;;;5029770;28;20049;-57
2023/04/18 03:35:24;;;;;;;10.02;5.28;;;7.00;99.90;;;;;;5016472;28;20445;-56
2023/04/18 03:37:50;;;;;;;8.93;5.10;;;7.00;99.90;;;;;;5030578;28;20037;-57
2023/04/18 03:40:15;;;;;;;9.50;5.18;;;7.20;99.90;;;;;;5022139;28;20041;-57
2023/04/18 03:42:41;;;;;;;12.18;5.78;;;7.30;99.90;;;;;;5028952;28;20045;-58
2023/04/18 03:45:07;;;;;;;8.50;5.30;;;;;;;;;;5022193;28;20038;-57
2023/04/18 03:47:33;;;;;;;9.50;5.50;;;7.60;99.90;;;;;;5026812;28;20046;-58
2023/04/18 03:49:59;;;;;;;10.80;5.68;;;7.60;99.90;;;;;;5030460;28;20079;-54
2023/04/18 03:52:24;;;;;;;9.75;5.50;;;7.60;99.90;;;;;;5027730;28;20033;-59
2023/04/18 03:54:50;;;;;;;10.48;5.95;;;7.30;99.90;;;;;;5029135;28;20041;-57
2023/04/18 03:57:16;;;;;;;9.00;5.72;;;7.70;99.90;;;;;;5029956;28;20042;-57
2023/04/18 03:59:41;;;;;;;9.77;5.68;;;7.60;99.90;;;;;;5030083;28;20047;-56
2023/04/18 04:02:07;;;;;;;10.27;5.65;;;7.90;99.90;;;;;;5026439;28;20037;-57
2023/04/18 04:04:33;;;;;;;10.15;6.10;;;7.60;99.90;;;;;;5022066;28;20037;-56
2023/04/18 04:06:59;;;;;;;10.02;5.38;;;7.90;99.90;;;;;;5029144;28;20080;-56
2023/04/18 04:09:25;;;;;;;11.57;6.13;;;8.60;99.90;;;;;;5028824;28;20048;-57
2023/04/18 04:11:51;;;;;;;10.75;5.82;;;8.00;99.90;;;;;;5020663;28;20045;-56
2023/04/18 04:14:17;;;;;;;12.38;6.25;;;8.00;99.90;;;;;;5030093;28;20044;-54
2023/04/18 04:16:42;;;;;;;12.15;6.95;;;7.80;99.90;;;;;;5025554;28;20518;-56
2023/04/18 04:19:08;;;;;;;13.70;6.68;;;7.60;99.90;;;;;;5033618;28;20406;-58
2023/04/18 04:21:34;;;;;;;13.05;6.63;;;8.50;99.90;;;;;;5027213;28;20402;-58
2023/04/18 04:24:00;;;;;;;10.20;6.03;;;8.20;99.90;;;;;;5018600;28;20065;-56
2023/04/18 04:26:26;;;;;;;10.45;7.03;;;8.30;99.90;;;;;;5017264;28;20115;-54
2023/04/18 04:28:52;;;;;;;14.02;6.45;;;8.20;99.90;;;;;;5006675;28;20267;-54
2023/04/18 04:31:20;;;;;;;13.30;6.95;;;8.70;99.90;;;;;;5014369;28;20349;-55
2023/04/18 04:33:46;;;;;;;13.88;7.60;;;8.70;99.90;;;;;;5025936;28;20049;-55
2023/04/18 04:36:13;;;;;;;11.63;6.65;;;8.10;99.90;;;;;;5019086;28;20068;-54
2023/04/18 04:38:40;;;;;;;12.48;6.63;;;8.50;99.90;;;;;;5024349;28;20065;-56
2023/04/18 04:41:06;;;;;;;12.32;7.63;;;8.70;99.90;;;;;;5020308;28;20045;-54
2023/04/18 04:43:33;;;;;;;11.00;6.53;;;;;;;;;;5026165;28;20041;-55
2023/04/18 04:45:59;;;;;;;15.10;7.60;;;8.20;99.90;;;;;;5025522;28;20041;-56
2023/04/18 04:48:25;;;;;;;18.48;8.43;;;8.40;99.90;;;;;;5027431;28;20038;-55
2023/04/18 04:50:54;;;;;;;13.20;7.15;;;8.10;99.90;;;;;;5023909;28;20041;-56
2023/04/18 04:53:20;;;;;;;10.90;7.18;;;8.30;99.90;;;;;;5021117;28;20626;-56
2023/04/18 04:55:46;;;;;;;13.00;7.57;;;8.20;99.90;;;;;;5027451;28;20046;-57
2023/04/18 04:58:12;;;;;;;12.77;7.80;;;8.30;99.90;;;;;;5028059;28;20045;-55
2023/04/18 05:00:38;;;;;;;15.23;8.07;;;8.20;99.90;;;;;;5027002;28;20491;-55
2023/04/18 05:03:04;;;;;;;14.85;8.40;;;8.30;99.90;;;;;;5029328;28;20483;-52
2023/04/18 05:05:29;;;;;;;16.50;8.85;;;7.90;99.90;;;;;;5028361;28;20498;-55
2023/04/18 05:07:55;;;;;;;12.55;7.55;;;8.40;99.90;;;;;;5024750;28;20038;-53
2023/04/18 05:10:21;;;;;;;14.43;7.72;;;7.80;99.90;;;;;;5025474;28;20040;-57
2023/04/18 05:12:47;;;;;;;12.40;7.78;;;;;;;;;;5028569;28;20034;-55
2023/04/18 05:15:14;;;;;;;13.88;8.55;;;8.50;99.90;;;;;;5022364;28;20401;-52
2023/04/18 05:17:41;;;;;;;12.43;7.78;;;8.60;99.90;;;;;;5027224;28;20041;-53
2023/04/18 05:20:07;;;;;;;14.68;8.40;;;8.80;99.90;;;;;;5027892;28;20073;-56
2023/04/18 05:22:34;;;;;;;12.77;8.25;;;8.10;99.90;;;;;;5028337;28;20077;-56
2023/04/18 05:25:00;;;;;;;13.68;7.82;;;8.50;99.90;;;;;;5021983;28;20072;-56
2023/04/18 05:27:26;;;;;;;14.73;8.63;;;;;;;;;;5020753;28;20073;-56
2023/04/18 05:29:52;;;;;;;14.52;8.45;;;8.70;99.90;;;;;;5027289;28;20120;-55
2023/04/18 05:32:18;;;;;;;13.38;8.88;;;9.00;99.90;;;;;;5030494;28;20112;-56
2023/04/18 05:34:44;;;;;;;15.55;7.93;;;8.60;99.90;;;;;;5031726;28;20176;-53
2023/04/18 05:37:10;;;;;;;15.20;8.30;;;8.60;99.90;;;;;;5032925;28;20041;-55
2023/04/18 05:39:36;;;;;;;13.45;8.73;;;9.00;99.90;;;;;;5031017;28;20474;-54
2023/04/18 05:42:02;;;;;;;14.45;8.57;;;9.00;99.90;;;;;;5027983;28;20076;-55
2023/04/18 05:44:28;;;;;;;14.30;8.65;;;8.70;99.90;;;;;;5027418;28;20037;-54
2023/04/18 05:46:54;;;;;;;13.52;8.15;;;9.20;99.90;;;;;;5032338;28;20095;-58
2023/04/18 05:49:20;;;;;;;13.13;8.25;;;9.30;99.90;;;;;;5032267;28;20033;-53
2023/04/18 05:51:48;;;;;;;13.20;8.43;;;8.30;99.90;;;;;;5031783;28;20047;-55
2023/04/18 05:54:14;;;;;;;13.77;9.25;;;9.10;99.90;;;;;;5034165;28;20037;-52
2023/04/18 05:56:40;;;;;;;13.90;7.85;;;8.50;99.90;;;;;;5029532;28;20041;-57
2023/04/18 05:59:06;;;;;;;13.23;8.80;;;9.20;99.90;;;;;;5030745;28;20072;-57
2023/04/18 06:01:32;;;;;;;13.70;7.93;;;9.00;99.90;;;;;;5022419;28;20072;-56
2023/04/18 06:03:57;;;;;;;13.52;8.48;;;8.90;99.90;;;;;;5022224;28;20226;-53
2023/04/18 06:06:23;;;;;;;14.68;8.57;;;8.80;99.90;;;;;;5030323;28;20033;-55
2023/04/18 06:08:49;;;;;;;13.02;8.07;;;8.90;99.90;;;;;;5023545;28;20568;-57
2023/04/18 06:11:15;;;;;;;12.48;7.70;;;9.10;99.90;;;;;;5031871;28;20399;-57
2023/04/18 06:13:42;;;;;;;15.02;8.27;;;8.70;99.90;;;;;;5029612;28;20029;-55
2023/04/18 06:16:07;;;;;;;12.20;8.52;;;9.80;99.90;;;;;;5019496;28;20029;-56
2023/04/18 06:18:33;;;;;;;11.73;7.90;;;8.90;99.90;;;;;;5029604;28;20047;-55
2023/04/18 06:20:59;;;;;;;13.88;8.20;;;9.20;99.90;;;;;;5025416;28;20499;-57
2023/04/18 06:23:25;;;;;;;13.65;7.78;;;8.90;99.90;;;;;;5031875;28;20057;-55
2023/04/18 06:25:50;;;;;;;12.63;8.63;;;8.90;99.90;;;;;;5024704;28;20041;-57
2023/04/18 06:28:16;;;;;;;13.57;8.63;;;8.80;99.90;;;;;;5031477;28;20037;-55
2023/04/18 06:30:42;;;;;;;12.48;7.75;;;9.10;99.90;;;;;;5023698;28;20057;-57
2023/04/18 06:33:11;;;;;;;14.63;8.63;;;8.80;99.90;;;;;;5031154;28;20498;-57
2023/04/18 06:35:37;;;;;;;11.93;7.28;;;9.00;99.90;;;;;;5031075;28;20449;-54
2023/04/18 06:38:02;;;;;;;14.85;7.90;;;9.20;99.90;;;;;;5031555;28;20056;-54
2023/04/18 06:40:28;;;;;;;12.93;7.93;;;9.00;99.90;;;;;;5031554;28;20487;-56
2023/04/18 06:42:54;;;;;;;12.32;8.27;;;9.00;99.90;;;;;;5022509;28;20436;-57
2023/04/18 06:45:20;;;;;;;13.25;8.05;;;9.60;99.90;;;;;;5029910;28;20117;-54
2023/04/18 06:47:46;;;;;;;14.90;8.98;;;8.70;99.90;;;;;;5029499;28;20049;-56
2023/04/18 06:50:12;;;;;;;12.57;7.35;;;;;;;;;;5031291;28;20033;-55
2023/04/18 06:52:45;;;;;;;13.95;7.63;;;9.10;99.90;;;;;;5030700;28;20034;-53
2023/04/18 06:55:12;;;;;;;13.02;8.15;;;8.90;99.90;;;;;;5022687;28;20029;-53
2023/04/18 06:57:39;;;;;;;10.93;7.40;;;8.70;99.90;;;;;;5030809;28;20029;-57
2023/04/18 07:00:05;;;;;;;14.02;8.13;;;9.00;99.90;;;;;;5030866;28;20076;-56
2023/04/18 07:02:31;;;;;;;17.05;7.60;;;8.80;99.90;;;;;;5025083;28;20545;-55
2023/04/18 07:04:57;;;;;;;12.43;7.15;;;9.00;99.90;;;;;;5030888;28;20057;-54
2023/04/18 07:07:22;;;;;;;13.85;8.15;;;9.30;99.90;;;;;;5029453;28;20056;-57
2023/04/18 07:09:49;;;;;;;13.30;7.20;;;8.80;99.90;;;;;;5029350;28;20112;-55
2023/04/18 07:12:15;;;;;;;12.80;5.95;;;8.90;99.90;;;;;;5024979;28;20030;-56
2023/04/18 07:14:41;;;;;;;9.57;6.00;;;8.60;99.90;;;;;;5027699;28;20033;-55
2023/04/18 07:17:06;;;;;;;9.75;6.10;;;8.80;99.90;;;;;;5019480;28;20055;-57
2023/04/18 07:19:32;;;;;;;10.70;6.05;;;8.80;99.90;;;;;;5027714;28;20506;-56
2023/04/18 07:21:57;;;;;;;10.85;6.57;;;8.30;99.90;;;;;;5030605;28;20546;-57
2023/04/18 07:24:23;;;;;;;10.23;5.88;;;8.50;99.90;;;;;;5022974;28;20053;-55
2023/04/18 07:26:52;;;;;;;9.48;6.03;;;8.80;99.90;;;;;;5027887;28;20049;-56
2023/04/18 07:29:20;;;;;;;10.55;6.50;;;8.70;99.90;;;;;;5024650;28;20064;-56
2023/04/18 07:31:46;;;;;;;10.90;5.97;;;8.80;99.90;;;;;;5029661;28;20507;-57
2023/04/18 07:34:16;;;;;;;11.57;6.22;;;8.70;99.90;;;;;;5030480;28;20076;-54
2023/04/18 07:36:41;;;;;;;9.50;6.05;;;9.00;99.90;;;;;;5028859;28;20470;-54
2023/04/18 07:39:08;;;;;;;11.77;6.50;;;8.70;99.90;;;;;;5030458;28;20025;-52
2023/04/18 07:41:34;;;;;;;11.70;6.50;;;8.90;99.90;;;;;;5029715;28;20205;-56
2023/04/18 07:44:02;;;;;;;9.98;6.70;;;8.90;99.90;;;;;;5029691;28;20033;-56
2023/04/18 07:46:31;;;;;;;11.75;6.78;;;8.90;99.90;;;;;;5012251;28;20126;-55
2023/04/18 07:48:56;;;;;;;11.55;6.07;;;9.20;99.90;;;;;;5029491;28;20519;-56
2023/04/18 07:51:33;;;;;;;13.40;6.43;;;9.00;99.90;;;;;;5023608;28;20070;-59
2023/04/18 07:53:59;;;;;;;10.10;6.00;;;9.00;99.90;;;;;;5180119;22;20505;-56
2023/04/18 07:56:26;;;;;;;11.27;6.30;;;9.00;99.90;;;;;;5066988;28;20047;-56
2023/04/18 07:58:52;;;;;;;10.93;5.72;;;9.30;99.90;;;;;;5068348;28;20378;-56
2023/04/18 08:01:19;;;;;;;10.60;6.97;;;9.30;99.90;;;;;;5060204;28;20040;-53
2023/04/18 08:03:48;;;;;;;12.38;6.57;;;9.70;99.90;;;;;;5076432;28;20046;-57
2023/04/18 08:06:15;;;;;;;12.00;6.45;;;9.10;99.90;;;;;;5069511;28;20059;-57
2023/04/18 08:08:41;;;;;;;13.30;6.72;;;9.20;99.90;;;;;;5067109;28;20141;-53
2023/04/18 08:11:07;;;;;;;11.63;6.93;;;9.40;99.90;;;;;;5069522;28;20044;-56
2023/04/18 08:13:33;;;;;;;13.90;7.30;;;9.80;99.90;;;;;;5069274;28;20108;-53
2023/04/18 08:15:59;;;;;;;13.07;7.38;;;9.50;99.90;;;;;;5068663;28;20513;-55
2023/04/18 08:18:25;;;;;;;11.07;6.53;;;9.30;99.90;;;;;;5069310;28;20446;-54
2023/04/18 08:20:51;;;;;;;13.90;6.95;;;9.40;99.90;;;;;;5068894;28;20044;-57
2023/04/18 08:23:17;;;;;;;12.38;6.70;;;9.30;99.90;;;;;;5069297;28;20116;-55
2023/04/18 08:25:42;;;;;;;10.80;6.50;;;9.60;99.90;;;;;;5068631;28;20036;-55
2023/04/18 08:28:08;;;;;;;11.27;7.30;;;9.00;99.90;;;;;;5069048;28;20105;-56
2023/04/18 08:30:34;;;;;;;12.23;7.80;;;9.00;99.90;;;;;;5062944;28;20044;-53
2023/04/18 08:33:00;;;;;;;10.90;6.50;;;9.50;99.90;;;;;;5068477;28;20032;-56
2023/04/18 08:35:26;;;;;;;10.18;6.50;;;10.10;99.90;;;;;;5069265;28;20036;-56
2023/04/18 08:37:52;;;;;;;12.35;7.00;;;10.00;99.90;;;;;;5067467;28;20477;-57
2023/04/18 08:40:17;;;;;;;11.38;7.30;;;9.40;99.90;;;;;;5063176;28;20078;-53
2023/04/18 08:42:44;;;;;;;11.02;7.45;;;10.10;99.90;;;;;;5068575;28;20449;-54
2023/04/18 08:45:12;;;;;;;11.18;6.82;;;9.70;99.90;;;;;;5068754;28;20033;-56
2023/04/18 08:47:38;;;;;;;15.10;6.32;;;9.90;99.90;;;;;;5068281;28;20029;-55
2023/04/18 08:50:05;;;;;;;11.35;6.68;;;9.40;99.90;;;;;;5046951;28;20052;-57
2023/04/18 08:52:32;;;;;;;13.10;7.43;;;10.30;99.90;;;;;;5069193;28;20085;-55
2023/04/18 08:54:58;;;;;;;10.35;6.97;;;9.90;99.90;;;;;;5068200;28;20028;-58
2023/04/18 08:57:26;;;;;;;12.52;6.82;;;9.40;99.90;;;;;;5069128;28;20045;-53
2023/04/18 08:59:53;;;;;;;13.40;7.15;;;10.00;99.90;;;;;;5068922;28;20067;-53
2023/04/18 09:02:21;;;;;;;11.18;7.13;;;9.80;99.90;;;;;;5069057;28;20115;-56
2023/04/18 09:04:51;;;;;;;10.57;6.13;;;10.00;99.90;;;;;;5059529;28;20037;-57
2023/04/18 09:07:18;;;;;;;11.60;6.88;;;10.10;99.90;;;;;;5072922;28;20036;-53
2023/04/18 09:09:46;;;;;;;11.15;6.47;;;10.10;99.90;;;;;;5072413;28;20059;-56
2023/04/18 09:12:16;;;;;;;11.38;5.85;;;10.50;99.90;;;;;;5071592;28;20068;-52
2023/04/18 09:14:44;;;;;;;11.02;6.82;;;10.50;99.90;;;;;;5063703;28;20103;-55
2023/04/18 09:17:37;;;;;;;12.40;6.40;;;10.80;99.90;;;;;;5054722;28;20044;-53
2023/04/18 09:20:05;;;;;;;10.95;5.85;;;10.20;99.90;;;;;;5058362;28;20052;-56
2023/04/18 09:22:50;;;;;;;10.45;5.80;;;10.10;99.90;;;;;;5068796;28;20068;-57
2023/04/18 09:25:26;;;;;;;10.52;5.93;;;11.10;99.90;;;;;;5065870;28;20046;-55
2023/04/18 09:27:52;;;;;;;8.85;5.38;;;10.50;99.90;;;;;;5072010;28;20051;-56
2023/04/18 09:30:35;;;;;;;10.35;5.95;;;10.50;99.90;;;;;;5068015;28;20123;-57
2023/04/18 09:33:06;;;;;;;10.80;6.57;;;11.20;99.90;;;;;;5071979;28;20032;-56
2023/04/18 09:35:32;;;;;;;13.52;6.20;;;10.60;99.90;;;;;;5054907;28;20040;-53
2023/04/18 09:37:58;;;;;;;12.68;6.20;;;11.30;99.90;;;;;;5072168;28;20047;-57
2023/04/18 09:40:24;;;;;;;11.38;6.22;;;11.50;99.90;;;;;;5071035;28;20033;-53
2023/04/18 09:42:53;;;;;;;11.25;5.55;;;10.70;99.90;;;;;;5071532;28;20040;-55
2023/04/18 09:45:19;;;;;;;12.38;6.18;;;;;;;;;;5054196;28;20037;-54
2023/04/18 09:47:45;;;;;;;11.48;6.47;;;11.00;99.90;;;;;;5071497;28;20036;-53
2023/04/18 09:50:11;;;;;;;9.10;5.60;;;10.80;99.90;;;;;;5071852;28;20028;-55
2023/04/18 09:52:39;;;;;;;10.10;5.88;;;11.50;99.90;;;;;;5062979;28;20041;-52
2023/04/18 09:55:11;;;;;;;10.77;6.47;;;10.90;99.90;;;;;;5071234;28;20443;-55
2023/04/18 09:57:39;;;;;;;9.30;5.63;;;11.00;99.90;;;;;;5071045;28;20139;-56
2023/04/18 10:00:16;;;;;;;10.32;5.90;;;11.80;99.90;;;;;;5071308;28;20090;-53
2023/04/18 10:02:55;;;;;;;9.15;5.78;;;11.20;99.90;;;;;;5063218;28;20083;-53
2023/04/18 10:05:24;;;;;;;11.20;5.82;;;;;;;;;;5071145;28;20068;-53
2023/04/18 10:07:49;;;;;;;9.73;5.55;;;11.50;99.90;;;;;;5071500;28;20076;-54
2023/04/18 10:10:16;;;;;;;9.90;5.68;;;11.30;99.90;;;;;;5053505;28;20054;-56
2023/04/18 10:12:42;;;;;;;10.07;6.20;;;11.40;99.90;;;;;;5071527;28;20037;-57
2023/04/18 10:15:10;;;;;;;10.35;5.60;;;;;;;;;;5066559;28;20041;-56
2023/04/18 10:17:59;;;;;;;8.05;4.90;;;11.80;99.90;;;;;;5070048;28;20052;-55
2023/04/18 10:20:29;;;;;;;9.88;5.30;;;11.60;99.90;;;;;;5071840;28;20165;-53
2023/04/18 10:22:56;;;;;;;10.73;5.43;;;12.20;99.90;;;;;;5070019;28;20054;-55
2023/04/18 10:25:37;;;;;;;7.93;4.90;;;12.30;99.90;;;;;;5070992;28;20375;-56
2023/04/18 10:28:09;;;;;;;10.07;5.05;;;12.10;99.90;;;;;;5061437;28;20120;-56
2023/04/18 10:30:41;;;;;;;8.00;5.22;;;12.20;99.90;;;;;;5071456;28;20036;-55
2023/04/18 10:33:37;;;;;;;7.85;4.95;;;11.70;95.00;;;;;;5070720;28;20059;-56
2023/04/18 10:36:02;;;;;;;9.10;4.38;;;12.00;99.90;;;;;;5070952;28;20421;-56
2023/04/18 10:38:28;;;;;;;8.00;4.93;;;12.10;99.90;;;;;;5070103;28;20048;-57
2023/04/18 10:41:23;;;;;;;9.50;4.82;;;12.50;99.90;;;;;;5062628;28;20111;-54
2023/04/18 10:44:10;;;;;;;9.88;4.75;;;12.30;99.90;;;;;;5067830;28;20040;-56
2023/04/18 10:46:36;;;;;;;7.05;4.50;;;12.20;99.30;;;;;;5071262;28;20036;-54
2023/04/18 10:49:12;;;;;;;11.98;4.57;;;13.10;99.90;;;;;;5062357;28;20182;-56
2023/04/18 10:51:38;;;;;;;10.65;5.20;;;12.70;99.90;;;;;;5070793;28;20029;-57
2023/04/18 10:54:08;;;;;;;11.55;5.65;;;12.40;99.90;;;;;;5070290;28;20051;-56
2023/04/18 10:56:34;;;;;;;8.00;5.07;;;12.70;99.80;;;;;;5070672;28;20036;-56
2023/04/18 10:59:02;;;;;;;9.07;4.97;;;12.40;99.90;;;;;;5070574;28;20390;-54
2023/04/18 11:01:31;;;;;;;7.45;4.97;;;12.80;99.90;;;;;;5062402;28;20050;-53
2023/04/18 11:03:56;;;;;;;8.52;5.55;;;13.30;99.90;;;;;;5066064;28;20041;-56
2023/04/18 11:06:24;;;;;;;8.63;4.63;;;12.70;98.20;;;;;;5070850;28;20040;-56
2023/04/18 11:08:50;;;;;;;8.23;5.18;;;12.90;96.80;;;;;;5067930;28;20040;-56
2023/04/18 11:11:15;;;;;;;8.43;5.22;;;13.10;98.70;;;;;;5061719;28;20416;-56
2023/04/18 11:13:55;;;;;;;9.18;5.22;;;13.20;98.50;;;;;;5060540;28;20032;-58
2023/04/18 11:16:28;;;;;;;8.07;4.95;;;13.30;97.90;;;;;;5062488;28;20072;-53
2023/04/18 11:18:54;;;;;;;9.50;5.97;;;12.80;99.90;;;;;;5060468;28;20045;-55
2023/04/18 11:21:20;;;;;;;8.68;5.32;;;14.00;97.90;;;;;;5053078;28;20059;-54
2023/04/18 11:23:46;;;;;;;7.75;4.80;;;13.80;97.20;;;;;;5068234;28;20036;-57
2023/04/18 11:26:16;;;;;;;8.88;4.70;;;13.60;94.00;;;;;;5067644;28;20045;-56
2023/04/18 11:28:42;;;;;;;8.43;5.05;;;13.60;93.90;;;;;;5068182;28;20541;-55
2023/04/18 11:31:07;;;;;;;10.00;5.13;;;14.10;95.50;;;;;;5070213;28;20040;-56
2023/04/18 11:33:35;;;;;;;8.27;4.72;;;13.80;93.70;;;;;;5070622;28;20032;-58
2023/04/18 11:36:01;;;;;;;7.85;5.10;;;14.20;93.40;;;;;;5069583;28;20045;-58
2023/04/18 11:38:29;;;;;;;9.18;4.65;;;14.00;90.20;;;;;;5069978;28;20043;-58
2023/04/18 11:40:55;;;;;;;9.02;5.32;;;13.50;92.50;;;;;;5069960;28;20041;-59
2023/04/18 11:43:23;;;;;;;9.85;5.22;;;14.40;87.50;;;;;;5065417;28;20047;-58
2023/04/18 11:45:57;;;;;;;8.80;4.97;;;14.00;92.20;;;;;;5066688;28;20044;-58
2023/04/18 11:48:23;;;;;;;6.93;4.35;;;14.20;95.00;;;;;;5069916;28;20028;-58
2023/04/18 11:50:49;;;;;;;7.80;4.95;;;14.10;91.40;;;;;;5068355;28;20389;-58
2023/04/18 11:53:31;;;;;;;9.77;5.15;;;14.20;84.50;;;;;;5069902;28;20025;-58
2023/04/18 11:55:57;;;;;;;8.98;5.78;;;15.40;94.10;;;;;;5068500;28;20631;-59
2023/04/18 11:58:30;;;;;;;10.63;5.63;;;14.50;84.40;;;;;;5069790;28;20068;-55
2023/04/18 12:00:56;;;;;;;8.35;5.43;;;14.80;86.10;;;;;;5062242;28;20036;-57
2023/04/18 12:03:23;;;;;;;7.75;5.10;;;14.90;83.60;;;;;;5068368;28;20381;-58
2023/04/18 12:05:58;;;;;;;7.63;5.22;;;15.80;82.90;;;;;;5069173;28;20098;-53
2023/04/18 12:08:24;;;;;;;9.50;5.50;;;15.80;74.00;;;;;;5069786;28;20036;-58
2023/04/18 12:10:52;;;;;;;7.70;4.90;;;15.80;71.10;;;;;;5068989;28;20047;-57
2023/04/18 12:13:24;;;;;;;8.00;4.90;;;16.50;73.10;;;;;;5069786;28;20033;-55
2023/04/18 12:15:50;;;;;;;7.70;4.70;;;17.00;76.00;;;;;;5069287;28;20123;-55
2023/04/18 12:18:18;;;;;;;7.05;4.18;;;16.70;65.70;;;;;;5061929;28;20492;-57
2023/04/18 12:20:48;;;;;;;7.63;3.92;;;17.10;57.70;;;;;;5063207;28;20060;-56
2023/04/18 12:23:34;;;;;;;6.13;3.83;;;17.00;63.80;;;;;;5066460;28;20470;-56
2023/04/18 12:26:18;;;;;;;7.93;4.25;;;18.10;61.20;;;;;;5065743;28;20289;-57
2023/04/18 12:28:45;;;;;;;9.97;5.27;;;20.10;65.50;;;;;;5065119;28;20040;-57
2023/04/18 12:31:10;;;;;;;10.10;6.03;;;22.60;39.00;;;;;;5066035;28;20398;-58
2023/04/18 12:33:36;;;;;;;9.50;6.20;;;25.00;15.80;;;;;;5064216;28;20032;-58
2023/04/18 12:36:04;;;;;;;10.75;5.82;;;25.60;4.20;;;;;;5060305;28;20167;-58
2023/04/18 12:38:29;;;;;;;11.07;6.45;;;26.40;1.00;;;;;;5068463;28;20068;-56
2023/04/18 12:40:55;;;;;;;10.27;6.38;;;27.60;1.00;;;;;;5068403;28;20068;-58
2023/04/18 12:43:21;;;;;;;10.65;6.45;;;28.00;1.00;;;;;;5069255;28;20036;-58
2023/04/18 12:45:46;;;;;;;11.73;6.80;;;27.30;1.00;;;;;;5060177;28;20437;-58
2023/04/18 12:48:12;;;;;;;11.40;6.75;;;26.70;1.00;;;;;;5060620;28;20033;-57
2023/04/18 12:50:38;;;;;;;10.63;6.97;;;25.80;1.00;;;;;;5064064;28;20459;-58